createdAt,value
2018-08-06T00:00:52.205Z,13.60
2018-08-06T00:01:52.085Z,15.40
2018-08-06T00:02:51.965Z,14.70
2018-08-06T00:03:51.843Z,14.40
2018-08-06T00:04:51.723Z,13.70
2018-08-06T00:05:51.613Z,14.00
2018-08-06T00:06:51.486Z,15.00
2018-08-06T00:07:51.367Z,14.10
2018-08-06T00:08:51.247Z,14.30
2018-08-06T00:09:51.127Z,14.70
2018-08-06T00:10:51.008Z,14.70
2018-08-06T00:11:52.865Z,16.50
2018-08-06T00:12:50.772Z,14.60
2018-08-06T00:13:50.646Z,13.80
2018-08-06T00:14:50.528Z,13.90
2018-08-06T00:15:50.408Z,14.70
2018-08-06T00:16:50.287Z,14.10
2018-08-06T00:17:50.169Z,14.40
2018-08-06T00:18:50.048Z,13.80
2018-08-06T00:19:49.927Z,14.40
2018-08-06T00:20:49.810Z,14.70
2018-08-06T00:21:49.693Z,14.20
2018-08-06T00:22:49.572Z,13.70
2018-08-06T00:23:49.452Z,13.40
2018-08-06T00:24:50.320Z,13.40
2018-08-06T00:25:49.210Z,13.00
2018-08-06T00:26:49.095Z,15.00
2018-08-06T00:27:48.970Z,14.20
2018-08-06T00:28:50.372Z,13.20
2018-08-06T00:29:48.736Z,14.40
2018-08-06T00:30:48.615Z,12.80
2018-08-06T00:31:48.493Z,13.60
2018-08-06T00:32:48.378Z,14.00
2018-08-06T00:33:48.253Z,15.50
2018-08-06T00:34:48.134Z,14.50
2018-08-06T00:35:48.013Z,16.50
2018-08-06T00:36:47.895Z,13.60
2018-08-06T00:37:47.826Z,13.80
2018-08-06T00:38:47.654Z,17.50
2018-08-06T00:39:47.536Z,14.70
2018-08-06T00:40:47.421Z,14.40
2018-08-06T00:41:47.299Z,14.90
2018-08-06T00:42:47.175Z,13.80
2018-08-06T00:43:47.055Z,14.50
2018-08-06T00:44:46.937Z,13.00
2018-08-06T00:45:46.816Z,14.40
2018-08-06T00:46:46.695Z,14.10
2018-08-06T00:47:46.575Z,14.10
2018-08-06T00:48:46.457Z,13.80
2018-08-06T00:49:46.335Z,14.10
2018-08-06T00:50:46.216Z,14.90
2018-08-06T00:51:46.099Z,13.60
2018-08-06T00:52:45.976Z,15.00
2018-08-06T00:53:46.320Z,14.00
2018-08-06T00:54:45.736Z,14.40
2018-08-06T00:55:45.619Z,13.60
2018-08-06T00:56:45.497Z,14.70
2018-08-06T00:57:45.377Z,15.70
2018-08-06T00:58:45.258Z,13.40
2018-08-06T00:59:45.135Z,13.90
2018-08-06T01:00:45.017Z,14.00
2018-08-06T01:01:44.900Z,13.10
2018-08-06T01:02:44.776Z,13.40
2018-08-06T01:03:44.657Z,14.50
2018-08-06T01:04:44.539Z,14.20
2018-08-06T01:05:44.417Z,16.80
2018-08-06T01:06:44.299Z,13.50
2018-08-06T01:07:44.180Z,14.80
2018-08-06T01:08:45.883Z,13.20
2018-08-06T01:09:43.937Z,13.20
2018-08-06T01:10:43.820Z,13.30
2018-08-06T01:11:43.699Z,12.90
2018-08-06T01:12:43.583Z,13.50
2018-08-06T01:13:43.459Z,13.90
2018-08-06T01:14:43.339Z,14.20
2018-08-06T01:15:43.217Z,13.70
2018-08-06T01:16:43.099Z,14.30
2018-08-06T01:17:42.978Z,13.30
2018-08-06T01:18:42.864Z,13.30
2018-08-06T01:19:42.739Z,13.80
2018-08-06T01:20:42.617Z,13.90
2018-08-06T01:21:42.499Z,14.90
2018-08-06T01:22:42.379Z,13.90
2018-08-06T01:23:42.261Z,14.20
2018-08-06T01:24:42.140Z,15.30
2018-08-06T01:25:42.019Z,14.70
2018-08-06T01:26:41.900Z,15.80
2018-08-06T01:27:41.778Z,13.80
2018-08-06T01:28:41.662Z,14.20
2018-08-06T01:29:41.539Z,13.40
2018-08-06T01:30:41.419Z,13.50
2018-08-06T01:31:41.298Z,13.30
2018-08-06T01:32:41.180Z,13.30
2018-08-06T01:33:41.060Z,13.30
2018-08-06T01:34:42.890Z,13.70
2018-08-06T01:35:40.824Z,14.20
2018-08-06T01:36:40.702Z,17.40
2018-08-06T01:37:42.393Z,13.80
2018-08-06T01:38:40.461Z,13.80
2018-08-06T01:39:40.346Z,13.80
2018-08-06T01:40:40.221Z,14.20
2018-08-06T01:41:40.106Z,14.20
2018-08-06T01:42:39.981Z,14.40
2018-08-06T01:43:39.860Z,14.00
2018-08-06T01:44:39.741Z,14.20
2018-08-06T01:45:39.640Z,14.90
2018-08-06T01:46:39.503Z,14.30
2018-08-06T01:47:39.382Z,14.70
2018-08-06T01:48:39.260Z,14.50
2018-08-06T01:49:39.143Z,14.60
2018-08-06T01:50:39.021Z,14.30
2018-08-06T01:51:38.901Z,14.10
2018-08-06T01:52:39.774Z,15.00
2018-08-06T01:53:38.661Z,14.80
2018-08-06T01:54:38.541Z,15.50
2018-08-06T01:55:38.425Z,14.40
2018-08-06T01:56:39.897Z,14.20
2018-08-06T01:57:38.179Z,14.30
2018-08-06T01:58:38.060Z,14.70
2018-08-06T01:59:39.897Z,14.80
2018-08-06T02:00:37.821Z,14.00
2018-08-06T02:01:37.700Z,14.20
2018-08-06T02:02:37.581Z,14.30
2018-08-06T02:03:37.460Z,14.40
2018-08-06T02:04:37.343Z,15.40
2018-08-06T02:05:37.217Z,14.00
2018-08-06T02:06:37.097Z,14.90
2018-08-06T02:07:36.976Z,16.20
2018-08-06T02:08:36.857Z,13.80
2018-08-06T02:09:36.739Z,14.00
2018-08-06T02:10:36.619Z,14.90
2018-08-06T02:11:36.500Z,14.40
2018-08-06T02:12:36.376Z,15.10
2018-08-06T02:13:36.261Z,13.90
2018-08-06T02:14:36.137Z,15.60
2018-08-06T02:15:36.022Z,13.80
2018-08-06T02:16:35.896Z,14.80
2018-08-06T02:17:35.778Z,14.00
2018-08-06T02:18:35.657Z,14.30
2018-08-06T02:19:35.535Z,14.70
2018-08-06T02:20:35.414Z,15.30
2018-08-06T02:21:35.295Z,15.00
2018-08-06T02:22:35.176Z,14.40
2018-08-06T02:23:35.056Z,15.60
2018-08-06T02:24:34.936Z,15.40
2018-08-06T02:25:34.811Z,13.40
2018-08-06T02:26:34.695Z,14.00
2018-08-06T02:27:36.406Z,14.20
2018-08-06T02:28:34.453Z,14.60
2018-08-06T02:29:34.331Z,16.60
2018-08-06T02:30:34.212Z,14.10
2018-08-06T02:31:34.093Z,14.40
2018-08-06T02:32:33.973Z,14.70
2018-08-06T02:33:33.854Z,13.90
2018-08-06T02:34:33.738Z,15.00
2018-08-06T02:35:33.611Z,14.00
2018-08-06T02:36:33.494Z,14.30
2018-08-06T02:37:33.377Z,13.90
2018-08-06T02:38:33.253Z,15.30
2018-08-06T02:39:33.136Z,13.90
2018-08-06T02:40:33.015Z,14.80
2018-08-06T02:41:32.891Z,14.50
2018-08-06T02:42:32.772Z,14.20
2018-08-06T02:43:32.650Z,14.50
2018-08-06T02:44:32.540Z,14.90
2018-08-06T02:45:32.414Z,15.40
2018-08-06T02:46:32.295Z,15.30
2018-08-06T02:47:32.169Z,15.40
2018-08-06T02:48:32.054Z,14.70
2018-08-06T02:49:31.931Z,15.30
2018-08-06T02:50:32.455Z,15.40
2018-08-06T02:51:31.690Z,15.00
2018-08-06T02:52:31.569Z,15.40
2018-08-06T02:53:31.448Z,15.10
2018-08-06T02:54:32.911Z,15.00
2018-08-06T02:55:31.210Z,14.90
2018-08-06T02:56:31.086Z,14.50
2018-08-06T02:57:30.967Z,14.90
2018-08-06T02:58:30.848Z,14.60
2018-08-06T02:59:30.729Z,14.40
2018-08-06T03:00:30.608Z,14.60
2018-08-06T03:01:30.487Z,15.60
2018-08-06T03:02:30.366Z,14.90
2018-08-06T03:03:30.244Z,14.60
2018-08-06T03:04:30.124Z,15.90
2018-08-06T03:05:30.006Z,14.90
2018-08-06T03:06:29.889Z,15.50
2018-08-06T03:07:29.762Z,14.70
2018-08-06T03:08:29.642Z,18.10
2018-08-06T03:09:31.417Z,15.00
2018-08-06T03:10:29.404Z,14.80
2018-08-06T03:11:29.279Z,15.20
2018-08-06T03:12:29.161Z,15.20
2018-08-06T03:13:29.043Z,15.40
2018-08-06T03:14:28.920Z,15.00
2018-08-06T03:15:28.798Z,15.50
2018-08-06T03:16:28.680Z,15.20
2018-08-06T03:17:28.557Z,15.30
2018-08-06T03:18:28.437Z,15.50
2018-08-06T03:19:28.470Z,15.40
2018-08-06T03:20:28.198Z,14.60
2018-08-06T03:21:28.077Z,15.30
2018-08-06T03:22:27.954Z,14.70
2018-08-06T03:23:27.835Z,14.70
2018-08-06T03:24:27.719Z,15.00
2018-08-06T03:25:27.594Z,14.80
2018-08-06T03:26:27.473Z,15.30
2018-08-06T03:27:27.351Z,15.20
2018-08-06T03:28:27.231Z,14.60
2018-08-06T03:29:27.109Z,14.90
2018-08-06T03:30:26.990Z,15.70
2018-08-06T03:31:26.883Z,14.90
2018-08-06T03:32:26.747Z,14.30
2018-08-06T03:33:26.628Z,15.00
2018-08-06T03:34:26.510Z,14.90
2018-08-06T03:35:26.387Z,15.30
2018-08-06T03:36:26.264Z,16.40
2018-08-06T03:37:26.146Z,14.60
2018-08-06T03:38:26.026Z,14.80
2018-08-06T03:39:25.907Z,15.20
2018-08-06T03:40:25.787Z,15.00
2018-08-06T03:41:25.666Z,16.00
2018-08-06T03:42:25.544Z,14.80
2018-08-06T03:43:25.421Z,15.10
2018-08-06T03:44:25.303Z,14.90
2018-08-06T03:45:25.180Z,15.00
2018-08-06T03:46:25.061Z,14.80
2018-08-06T03:47:24.939Z,14.40
2018-08-06T03:48:24.820Z,15.20
2018-08-06T03:49:24.700Z,14.60
2018-08-06T03:50:24.584Z,14.20
2018-08-06T03:51:24.457Z,14.90
2018-08-06T03:52:24.339Z,14.30
2018-08-06T03:53:24.217Z,15.50
2018-08-06T03:54:24.096Z,13.90
2018-08-06T03:55:23.976Z,15.00
2018-08-06T03:56:23.856Z,15.30
2018-08-06T03:57:23.733Z,15.30
2018-08-06T03:58:23.615Z,14.60
2018-08-06T03:59:23.494Z,15.40
2018-08-06T04:00:23.375Z,15.40
2018-08-06T04:01:23.254Z,15.10
2018-08-06T04:02:23.135Z,14.80
2018-08-06T04:03:23.013Z,14.40
2018-08-06T04:04:22.891Z,14.10
2018-08-06T04:05:22.774Z,15.60
2018-08-06T04:06:22.653Z,15.40
2018-08-06T04:07:22.532Z,14.90
2018-08-06T04:08:22.410Z,15.30
2018-08-06T04:09:22.290Z,14.50
2018-08-06T04:10:22.173Z,14.70
2018-08-06T04:11:22.051Z,14.70
2018-08-06T04:12:21.928Z,14.80
2018-08-06T04:13:21.844Z,15.40
2018-08-06T04:14:21.686Z,15.10
2018-08-06T04:15:21.570Z,15.10
2018-08-06T04:16:21.447Z,15.30
2018-08-06T04:17:21.328Z,14.60
2018-08-06T04:18:21.206Z,15.60
2018-08-06T04:19:21.083Z,15.50
2018-08-06T04:20:20.964Z,15.10
2018-08-06T04:21:20.844Z,15.30
2018-08-06T04:22:20.721Z,14.80
2018-08-06T04:23:20.604Z,15.40
2018-08-06T04:24:20.483Z,15.80
2018-08-06T04:25:20.363Z,15.40
2018-08-06T04:26:20.240Z,15.00
2018-08-06T04:27:20.117Z,15.00
2018-08-06T04:28:19.997Z,16.80
2018-08-06T04:29:19.877Z,15.10
2018-08-06T04:30:19.757Z,15.10
2018-08-06T04:31:19.640Z,14.20
2018-08-06T04:32:19.515Z,14.90
2018-08-06T04:33:19.394Z,16.00
2018-08-06T04:34:19.275Z,15.00
2018-08-06T04:35:19.152Z,15.30
2018-08-06T04:36:19.037Z,15.30
2018-08-06T04:37:18.916Z,14.70
2018-08-06T04:38:18.792Z,15.80
2018-08-06T04:39:18.671Z,15.10
2018-08-06T04:40:18.553Z,15.30
2018-08-06T04:41:18.430Z,14.90
2018-08-06T04:42:18.308Z,14.10
2018-08-06T04:43:18.190Z,14.80
2018-08-06T04:44:18.066Z,15.10
2018-08-06T04:45:17.954Z,15.40
2018-08-06T04:46:17.826Z,15.70
2018-08-06T04:47:18.476Z,15.20
2018-08-06T04:48:17.584Z,14.80
2018-08-06T04:49:17.466Z,15.90
2018-08-06T04:50:17.344Z,15.00
2018-08-06T04:51:17.222Z,16.10
2018-08-06T04:52:17.102Z,14.70
2018-08-06T04:53:16.984Z,14.90
2018-08-06T04:54:16.862Z,15.10
2018-08-06T04:55:16.764Z,14.90
2018-08-06T04:56:16.624Z,15.10
2018-08-06T04:57:16.499Z,14.60
2018-08-06T04:58:16.380Z,14.50
2018-08-06T04:59:16.261Z,14.50
2018-08-06T05:00:16.139Z,15.80
2018-08-06T05:01:16.019Z,14.90
2018-08-06T05:02:15.900Z,14.90
2018-08-06T05:03:15.779Z,15.80
2018-08-06T05:04:15.658Z,14.70
2018-08-06T05:05:15.537Z,14.10
2018-08-06T05:06:15.417Z,14.80
2018-08-06T05:07:16.949Z,14.60
2018-08-06T05:08:15.177Z,15.40
2018-08-06T05:09:15.056Z,14.60
2018-08-06T05:10:14.935Z,15.00
2018-08-06T05:11:14.813Z,15.70
2018-08-06T05:12:14.695Z,13.80
2018-08-06T05:13:14.574Z,14.40
2018-08-06T05:14:14.455Z,14.60
2018-08-06T05:15:14.335Z,14.70
2018-08-06T05:16:14.483Z,13.70
2018-08-06T05:17:14.096Z,14.70
2018-08-06T05:18:13.979Z,14.90
2018-08-06T05:19:13.854Z,15.80
2018-08-06T05:20:13.734Z,14.90
2018-08-06T05:21:13.613Z,14.70
2018-08-06T05:22:13.493Z,15.20
2018-08-06T05:23:13.377Z,14.90
2018-08-06T05:24:13.256Z,14.60
2018-08-06T05:25:13.134Z,15.10
2018-08-06T05:26:13.016Z,15.20
2018-08-06T05:27:12.899Z,15.20
2018-08-06T05:28:12.775Z,15.20
2018-08-06T05:29:12.657Z,14.80
2018-08-06T05:30:12.538Z,14.40
2018-08-06T05:31:12.419Z,15.10
2018-08-06T05:32:12.298Z,15.40
2018-08-06T05:33:12.180Z,14.50
2018-08-06T05:34:12.061Z,14.00
2018-08-06T05:35:11.938Z,14.80
2018-08-06T05:36:11.821Z,15.80
2018-08-06T05:37:11.700Z,16.20
2018-08-06T05:38:11.583Z,14.80
2018-08-06T05:39:11.461Z,14.80
2018-08-06T05:40:12.959Z,16.30
2018-08-06T05:41:11.225Z,15.90
2018-08-06T05:42:11.106Z,16.30
2018-08-06T05:43:10.986Z,16.10
2018-08-06T05:44:10.866Z,14.80
2018-08-06T05:45:10.747Z,14.40
2018-08-06T05:46:10.627Z,15.60
2018-08-06T05:47:10.508Z,15.70
2018-08-06T05:48:10.434Z,15.60
2018-08-06T05:49:10.275Z,15.30
2018-08-06T05:50:10.158Z,15.30
2018-08-06T05:51:10.034Z,15.20
2018-08-06T05:52:09.916Z,14.70
2018-08-06T05:53:09.799Z,15.40
2018-08-06T05:54:09.677Z,15.70
2018-08-06T05:55:09.559Z,15.70
2018-08-06T05:56:10.965Z,16.10
2018-08-06T05:57:09.324Z,15.20
2018-08-06T05:58:09.204Z,14.40
2018-08-06T05:59:09.085Z,14.90
2018-08-06T06:00:09.008Z,14.10
2018-08-06T06:01:08.847Z,14.10
2018-08-06T06:02:08.731Z,14.30
2018-08-06T06:03:08.622Z,14.70
2018-08-06T06:04:08.492Z,14.50
2018-08-06T06:05:08.371Z,15.10
2018-08-06T06:06:08.259Z,15.30
2018-08-06T06:07:08.134Z,15.40
2018-08-06T06:08:08.020Z,14.20
2018-08-06T06:09:07.898Z,15.00
2018-08-06T06:10:07.776Z,15.20
2018-08-06T06:11:07.656Z,14.50
2018-08-06T06:12:07.539Z,15.30
2018-08-06T06:13:07.423Z,14.90
2018-08-06T06:14:07.305Z,14.70
2018-08-06T06:15:07.187Z,14.10
2018-08-06T06:16:07.064Z,14.30
2018-08-06T06:17:06.948Z,14.20
2018-08-06T06:18:06.830Z,13.90
2018-08-06T06:19:06.716Z,14.50
2018-08-06T06:20:06.590Z,14.50
2018-08-06T06:21:06.474Z,14.30
2018-08-06T06:22:06.354Z,14.70
2018-08-06T06:23:06.237Z,13.80
2018-08-06T06:24:06.119Z,13.30
2018-08-06T06:25:06.000Z,14.70
2018-08-06T06:26:05.883Z,14.50
2018-08-06T06:27:05.763Z,14.20
2018-08-06T06:28:05.652Z,14.20
2018-08-06T06:29:05.527Z,14.60
2018-08-06T06:30:05.409Z,13.80
2018-08-06T06:31:05.290Z,14.00
2018-08-06T06:32:05.175Z,13.90
2018-08-06T06:33:05.064Z,13.70
2018-08-06T06:34:04.936Z,14.30
2018-08-06T06:35:04.817Z,14.70
2018-08-06T06:36:04.701Z,14.10
2018-08-06T06:37:04.580Z,14.20
2018-08-06T06:38:04.468Z,13.80
2018-08-06T06:39:04.345Z,13.90
2018-08-06T06:40:04.228Z,14.50
2018-08-06T06:41:04.110Z,14.10
2018-08-06T06:42:03.997Z,13.70
2018-08-06T06:43:03.877Z,14.20
2018-08-06T06:44:04.519Z,14.10
2018-08-06T06:45:03.642Z,14.10
2018-08-06T06:46:03.521Z,14.20
2018-08-06T06:47:03.406Z,13.90
2018-08-06T06:48:03.286Z,14.50
2018-08-06T06:49:03.314Z,14.60
2018-08-06T06:50:03.055Z,15.00
2018-08-06T06:51:02.940Z,14.90
2018-08-06T06:52:02.814Z,14.00
2018-08-06T06:53:02.697Z,14.80
2018-08-06T06:54:02.584Z,14.80
2018-08-06T06:55:02.464Z,14.60
2018-08-06T06:56:02.349Z,14.00
2018-08-06T06:57:02.229Z,14.30
2018-08-06T06:58:02.111Z,14.20
2018-08-06T06:59:01.992Z,15.20
2018-08-06T07:00:03.509Z,14.80
2018-08-06T07:01:01.764Z,14.20
2018-08-06T07:02:01.643Z,15.10
2018-08-06T07:03:01.524Z,14.90
2018-08-06T07:04:01.411Z,14.60
2018-08-06T07:05:01.302Z,13.90
2018-08-06T07:06:01.177Z,14.60
2018-08-06T07:07:01.056Z,14.30
2018-08-06T07:08:00.938Z,14.40
2018-08-06T07:09:00.823Z,14.40
2018-08-06T07:10:00.706Z,14.40
2018-08-06T07:11:00.591Z,14.20
2018-08-06T07:12:00.469Z,14.30
2018-08-06T07:13:00.554Z,14.50
2018-08-06T07:14:00.292Z,14.50
2018-08-06T07:15:00.118Z,14.30
2018-08-06T07:16:00.008Z,14.20
2018-08-06T07:16:59.883Z,13.60
2018-08-06T07:17:59.769Z,13.90
2018-08-06T07:18:59.649Z,13.80
2018-08-06T07:19:59.531Z,14.10
2018-08-06T07:20:59.418Z,13.80
2018-08-06T07:21:59.297Z,13.70
2018-08-06T07:22:59.182Z,13.60
2018-08-06T07:23:59.065Z,14.20
2018-08-06T07:24:58.950Z,14.10
2018-08-06T07:25:58.898Z,14.30
2018-08-06T07:26:58.714Z,14.60
2018-08-06T07:27:58.598Z,14.40
2018-08-06T07:28:58.480Z,14.10
2018-08-06T07:29:58.364Z,14.60
2018-08-06T07:30:58.247Z,14.70
2018-08-06T07:31:58.129Z,15.00
2018-08-06T07:32:58.019Z,14.50
2018-08-06T07:33:57.900Z,13.60
2018-08-06T07:34:57.777Z,14.70
2018-08-06T07:35:57.662Z,13.90
2018-08-06T07:36:57.548Z,14.60
2018-08-06T07:37:57.427Z,14.80
2018-08-06T07:38:57.315Z,14.60
2018-08-06T07:39:57.243Z,13.70
2018-08-06T07:40:57.081Z,14.00
2018-08-06T07:41:56.960Z,14.00
2018-08-06T07:42:56.845Z,14.40
2018-08-06T07:43:56.728Z,13.60
2018-08-06T07:44:56.610Z,14.00
2018-08-06T07:45:56.494Z,13.70
2018-08-06T07:46:56.394Z,13.50
2018-08-06T07:47:56.266Z,13.70
2018-08-06T07:48:56.148Z,14.00
2018-08-06T07:49:56.064Z,13.60
2018-08-06T07:50:55.910Z,14.00
2018-08-06T07:51:55.796Z,13.70
2018-08-06T07:52:55.677Z,13.40
2018-08-06T07:53:55.558Z,13.70
2018-08-06T07:54:55.445Z,13.50
2018-08-06T07:55:55.327Z,13.70
2018-08-06T07:56:55.209Z,13.10
2018-08-06T07:57:55.096Z,13.70
2018-08-06T07:58:54.978Z,13.20
2018-08-06T07:59:54.859Z,13.50
2018-08-06T08:00:54.744Z,13.50
2018-08-06T08:01:54.629Z,13.60
2018-08-06T08:02:54.511Z,13.40
2018-08-06T08:03:54.397Z,13.50
2018-08-06T08:04:54.280Z,13.30
2018-08-06T08:05:54.163Z,13.80
2018-08-06T08:06:54.048Z,12.80
2018-08-06T08:07:53.934Z,12.80
2018-08-06T08:08:53.820Z,12.70
2018-08-06T08:09:53.702Z,13.00
2018-08-06T08:10:53.586Z,12.50
2018-08-06T08:11:53.482Z,12.90
2018-08-06T08:12:53.353Z,12.80
2018-08-06T08:13:53.236Z,12.40
2018-08-06T08:14:53.120Z,12.50
2018-08-06T08:15:53.006Z,12.50
2018-08-06T08:16:52.888Z,12.90
2018-08-06T08:17:52.776Z,12.30
2018-08-06T08:18:52.660Z,12.80
2018-08-06T08:19:52.588Z,12.30
2018-08-06T08:20:52.429Z,12.30
2018-08-06T08:21:52.311Z,12.40
2018-08-06T08:22:52.197Z,12.00
2018-08-06T08:23:52.081Z,12.40
2018-08-06T08:24:51.968Z,12.10
2018-08-06T08:25:51.855Z,11.90
2018-08-06T08:26:51.733Z,12.10
2018-08-06T08:27:51.622Z,11.20
2018-08-06T08:28:51.510Z,12.00
2018-08-06T08:29:51.391Z,11.10
2018-08-06T08:30:51.272Z,11.30
2018-08-06T08:31:51.159Z,11.60
2018-08-06T08:32:51.045Z,12.50
2018-08-06T08:33:50.968Z,11.80
2018-08-06T08:34:50.817Z,11.60
2018-08-06T08:35:50.698Z,10.80
2018-08-06T08:36:50.584Z,11.40
2018-08-06T08:37:50.469Z,11.20
2018-08-06T08:38:50.352Z,11.00
2018-08-06T08:39:50.241Z,11.70
2018-08-06T08:40:50.554Z,11.80
2018-08-06T08:41:50.009Z,11.30
2018-08-06T08:42:49.895Z,10.90
2018-08-06T08:43:49.780Z,11.10
2018-08-06T08:44:49.668Z,10.90
2018-08-06T08:45:49.553Z,11.20
2018-08-06T08:46:49.437Z,11.20
2018-08-06T08:47:49.322Z,11.70
2018-08-06T08:48:49.207Z,11.40
2018-08-06T08:49:49.093Z,11.00
2018-08-06T08:50:48.978Z,10.40
2018-08-06T08:51:48.867Z,10.50
2018-08-06T08:52:48.758Z,11.20
2018-08-06T08:53:48.637Z,11.10
2018-08-06T08:54:48.529Z,10.60
2018-08-06T08:55:48.410Z,10.80
2018-08-06T08:56:48.292Z,11.40
2018-08-06T08:57:48.181Z,10.40
2018-08-06T08:58:48.158Z,10.70
2018-08-06T08:59:47.949Z,10.60
2018-08-06T09:00:47.835Z,10.20
2018-08-06T09:01:47.723Z,10.50
2018-08-06T09:02:47.618Z,9.90
2018-08-06T09:03:47.495Z,9.90
2018-08-06T09:04:47.379Z,9.80
2018-08-06T09:05:47.266Z,10.00
2018-08-06T09:06:47.150Z,10.10
2018-08-06T09:07:47.042Z,10.90
2018-08-06T09:08:46.922Z,11.40
2018-08-06T09:09:46.810Z,10.20
2018-08-06T09:10:46.696Z,10.40
2018-08-06T09:11:46.581Z,10.10
2018-08-06T09:12:46.468Z,9.50
2018-08-06T09:13:46.355Z,10.10
2018-08-06T09:14:46.245Z,9.50
2018-08-06T09:15:46.125Z,9.20
2018-08-06T09:16:46.012Z,9.20
2018-08-06T09:17:45.897Z,9.20
2018-08-06T09:18:45.785Z,9.00
2018-08-06T09:19:45.669Z,8.80
2018-08-06T09:20:45.565Z,8.70
2018-08-06T09:21:45.450Z,8.80
2018-08-06T09:22:45.329Z,9.60
2018-08-06T09:23:45.213Z,8.90
2018-08-06T09:24:45.100Z,8.90
2018-08-06T09:25:44.989Z,8.60
2018-08-06T09:26:44.918Z,8.70
2018-08-06T09:27:44.759Z,8.70
2018-08-06T09:28:44.649Z,8.50
2018-08-06T09:29:44.532Z,9.00
2018-08-06T09:30:44.416Z,9.30
2018-08-06T09:31:44.310Z,8.40
2018-08-06T09:32:44.190Z,8.80
2018-08-06T09:33:44.077Z,8.90
2018-08-06T09:34:43.961Z,8.20
2018-08-06T09:35:43.850Z,8.20
2018-08-06T09:36:43.737Z,7.70
2018-08-06T09:37:43.621Z,7.60
2018-08-06T09:38:43.506Z,7.70
2018-08-06T09:39:43.395Z,7.20
2018-08-06T09:40:43.279Z,7.80
2018-08-06T09:41:43.170Z,7.10
2018-08-06T09:42:43.052Z,7.40
2018-08-06T09:43:42.938Z,7.10
2018-08-06T09:44:42.828Z,7.10
2018-08-06T09:45:42.712Z,7.50
2018-08-06T09:46:42.608Z,8.20
2018-08-06T09:47:42.486Z,7.50
2018-08-06T09:48:42.504Z,7.40
2018-08-06T09:49:42.256Z,7.20
2018-08-06T09:50:42.144Z,7.30
2018-08-06T09:51:42.035Z,7.40
2018-08-06T09:52:41.919Z,7.30
2018-08-06T09:53:41.801Z,8.30
2018-08-06T09:54:41.691Z,7.00
2018-08-06T09:55:41.574Z,7.90
2018-08-06T09:56:41.460Z,6.70
2018-08-06T09:57:41.349Z,6.40
2018-08-06T09:58:41.235Z,6.50
2018-08-06T09:59:41.127Z,6.50
2018-08-06T10:00:41.010Z,6.90
2018-08-06T10:01:40.895Z,6.10
2018-08-06T10:02:40.784Z,6.00
2018-08-06T10:03:40.670Z,6.00
2018-08-06T10:04:40.557Z,6.60
2018-08-06T10:05:40.513Z,6.10
2018-08-06T10:06:40.463Z,6.40
2018-08-06T10:07:40.220Z,6.30
2018-08-06T10:08:40.589Z,6.10
2018-08-06T10:09:40.003Z,6.30
2018-08-06T10:10:39.878Z,7.30
2018-08-06T10:11:39.774Z,6.20
2018-08-06T10:12:39.666Z,6.10
2018-08-06T10:13:39.540Z,6.30
2018-08-06T10:14:39.427Z,6.10
2018-08-06T10:15:39.332Z,5.90
2018-08-06T10:16:39.203Z,6.50
2018-08-06T10:17:39.091Z,6.10
2018-08-06T10:18:38.981Z,5.80
2018-08-06T10:19:38.920Z,5.80
2018-08-06T10:20:38.753Z,5.80
2018-08-06T10:21:38.647Z,5.70
2018-08-06T10:22:38.528Z,6.30
2018-08-06T10:23:38.420Z,5.80
2018-08-06T10:24:38.354Z,5.30
2018-08-06T10:25:38.200Z,5.90
2018-08-06T10:26:38.083Z,5.90
2018-08-06T10:27:37.972Z,5.20
2018-08-06T10:28:37.857Z,5.40
2018-08-06T10:29:37.747Z,5.50
2018-08-06T10:30:37.690Z,5.50
2018-08-06T10:31:37.523Z,5.10
2018-08-06T10:32:37.414Z,5.20
2018-08-06T10:33:37.300Z,5.10
2018-08-06T10:34:37.190Z,4.90
2018-08-06T10:35:37.079Z,5.00
2018-08-06T10:36:36.970Z,5.00
2018-08-06T10:37:36.856Z,5.00
2018-08-06T10:38:36.746Z,4.90
2018-08-06T10:39:36.633Z,4.70
2018-08-06T10:40:36.524Z,5.20
2018-08-06T10:41:36.412Z,4.80
2018-08-06T10:42:36.297Z,5.20
2018-08-06T10:43:36.196Z,5.00
2018-08-06T10:44:36.181Z,4.80
2018-08-06T10:45:35.968Z,4.90
2018-08-06T10:46:35.855Z,4.90
2018-08-06T10:47:35.749Z,5.00
2018-08-06T10:48:35.665Z,5.00
2018-08-06T10:49:35.528Z,5.20
2018-08-06T10:50:35.414Z,4.70
2018-08-06T10:51:35.301Z,4.10
2018-08-06T10:52:35.193Z,4.90
2018-08-06T10:53:35.092Z,4.60
2018-08-06T10:54:34.996Z,4.50
2018-08-06T10:55:34.979Z,4.70
2018-08-06T10:56:38.794Z,4.50
2018-08-06T10:57:34.744Z,4.40
2018-08-06T10:58:34.538Z,4.70
2018-08-06T10:59:34.472Z,4.10
2018-08-06T11:00:34.310Z,4.40
2018-08-06T11:01:34.203Z,4.40
2018-08-06T11:02:34.088Z,4.50
2018-08-06T11:03:33.983Z,4.50
2018-08-06T11:04:33.868Z,4.20
2018-08-06T11:05:33.760Z,4.10
2018-08-06T11:06:33.650Z,4.50
2018-08-06T11:07:33.541Z,4.10
2018-08-06T11:08:33.436Z,4.20
2018-08-06T11:09:33.323Z,4.10
2018-08-06T11:10:33.209Z,4.50
2018-08-06T11:11:33.396Z,5.40
2018-08-06T11:12:32.991Z,4.20
2018-08-06T11:13:32.880Z,4.40
2018-08-06T11:14:32.773Z,4.10
2018-08-06T11:15:32.664Z,4.30
2018-08-06T11:16:33.113Z,4.20
2018-08-06T11:17:32.457Z,4.00
2018-08-06T11:18:32.340Z,4.30
2018-08-06T11:19:32.226Z,4.20
2018-08-06T11:20:39.592Z,4.10
2018-08-06T11:21:32.007Z,3.90
2018-08-06T11:22:31.897Z,3.80
2018-08-06T11:23:32.214Z,3.90
2018-08-06T11:24:31.680Z,3.80
2018-08-06T11:25:31.576Z,4.00
2018-08-06T11:26:31.461Z,3.80
2018-08-06T11:27:31.352Z,3.80
2018-08-06T11:28:31.312Z,4.40
2018-08-06T11:29:31.135Z,3.60
2018-08-06T11:30:31.669Z,4.00
2018-08-06T11:31:30.918Z,3.70
2018-08-06T11:32:30.807Z,3.40
2018-08-06T11:33:30.700Z,3.90
2018-08-06T11:34:30.590Z,4.10
2018-08-06T11:35:30.480Z,3.80
2018-08-06T11:36:30.638Z,5.60
2018-08-06T11:37:30.265Z,4.00
2018-08-06T11:38:30.154Z,3.60
2018-08-06T11:39:30.498Z,4.00
2018-08-06T11:40:29.936Z,3.80
2018-08-06T11:41:29.830Z,3.70
2018-08-06T11:42:29.721Z,3.70
2018-08-06T11:43:29.612Z,3.80
2018-08-06T11:44:29.503Z,3.70
2018-08-06T11:45:29.394Z,3.80
2018-08-06T11:46:29.286Z,4.00
2018-08-06T11:47:29.179Z,4.40
2018-08-06T11:48:29.068Z,3.90
2018-08-06T11:49:28.967Z,3.90
2018-08-06T11:50:28.853Z,4.00
2018-08-06T11:51:28.755Z,4.00
2018-08-06T11:52:28.637Z,3.80
2018-08-06T11:53:28.528Z,4.50
2018-08-06T11:54:28.417Z,3.90
2018-08-06T11:55:28.310Z,4.20
2018-08-06T11:56:28.210Z,3.80
2018-08-06T11:57:28.093Z,3.50
2018-08-06T11:58:28.014Z,3.60
2018-08-06T11:59:27.971Z,3.70
2018-08-06T12:00:27.767Z,4.00
2018-08-06T12:01:27.658Z,3.90
2018-08-06T12:02:28.270Z,4.00
2018-08-06T12:03:27.440Z,3.70
2018-08-06T12:04:27.334Z,3.80
2018-08-06T12:05:27.226Z,3.60
2018-08-06T12:06:30.380Z,3.80
2018-08-06T12:07:27.011Z,3.90
2018-08-06T12:08:26.906Z,4.60
2018-08-06T12:09:26.795Z,3.80
2018-08-06T12:10:26.688Z,4.50
2018-08-06T12:11:26.701Z,3.80
2018-08-06T12:12:26.467Z,3.80
2018-08-06T12:13:26.368Z,3.70
2018-08-06T12:14:26.253Z,3.80
2018-08-06T12:15:26.144Z,4.00
2018-08-06T12:16:26.063Z,3.70
2018-08-06T12:17:25.927Z,3.80
2018-08-06T12:18:25.819Z,4.00
2018-08-06T12:19:25.708Z,3.80
2018-08-06T12:20:25.647Z,3.70
2018-08-06T12:21:25.499Z,3.60
2018-08-06T12:22:25.385Z,3.50
2018-08-06T12:23:25.279Z,3.40
2018-08-06T12:24:25.172Z,3.60
2018-08-06T12:25:25.066Z,3.20
2018-08-06T12:26:24.974Z,3.70
2018-08-06T12:27:24.912Z,4.00
2018-08-06T12:28:24.742Z,3.80
2018-08-06T12:29:24.633Z,3.80
2018-08-06T12:30:24.529Z,3.80
2018-08-06T12:31:25.140Z,4.10
2018-08-06T12:32:24.314Z,4.00
2018-08-06T12:33:24.200Z,4.10
2018-08-06T12:34:24.092Z,4.20
2018-08-06T12:35:24.641Z,4.10
2018-08-06T12:36:23.878Z,4.20
2018-08-06T12:37:23.764Z,4.40
2018-08-06T12:38:23.654Z,3.90
2018-08-06T12:39:23.545Z,4.00
2018-08-06T12:40:24.692Z,4.40
2018-08-06T12:41:23.399Z,4.50
2018-08-06T12:42:23.220Z,4.30
2018-08-06T12:43:23.110Z,4.50
2018-08-06T12:44:23.000Z,5.00
2018-08-06T12:45:22.893Z,4.50
2018-08-06T12:46:22.839Z,4.20
2018-08-06T12:47:22.674Z,4.50
2018-08-06T12:48:22.575Z,4.50
2018-08-06T12:49:22.458Z,4.60
2018-08-06T12:50:22.343Z,3.80
2018-08-06T12:51:22.236Z,4.20
2018-08-06T12:52:22.132Z,3.90
2018-08-06T12:53:22.021Z,4.00
2018-08-06T12:54:22.615Z,4.00
2018-08-06T12:55:28.615Z,4.30
2018-08-06T12:56:21.691Z,4.20
2018-08-06T12:57:21.585Z,4.10
2018-08-06T12:58:21.473Z,4.00
2018-08-06T12:59:24.053Z,4.10